Preview of NWS' New Version of Forecast
This preview is not operational and should not be used for support decisions.

Terminal Aerodrome Forecast (TAF)

Issued by National Weather Service (NWS)

                            
504 
FTUS42 KMFL 252341
TAFMIA
TAF
KMIA 252341Z 2600/2706 11007KT P6SM VCSH FEW015 SCT025 BKN100
      TEMPO 2600/2602 VRB10KT 4SM SHRA SCT015 BKN025
     FM260800 11004KT 6SM SHRA SCT025 OVC035
     FM261400 12013KT 6SM SHRA VCTS FEW007 SCT015 BKN025CB=